sensor_id;sensor_type;location;lat;lon;timestamp;temperature;humidity
9975;DHT22;5028;50.974;4.968;2023-06-22T00:00:38;20.50;99.90
9975;DHT22;5028;50.974;4.968;2023-06-22T00:03:09;20.50;99.90
9975;DHT22;5028;50.974;4.968;2023-06-22T00:05:38;20.40;99.90
9975;DHT22;5028;50.974;4.968;2023-06-22T00:08:07;20.40;99.90
9975;DHT22;5028;50.974;4.968;2023-06-22T00:10:37;20.40;99.90
9975;DHT22;5028;50.974;4.968;2023-06-22T00:13:06;20.30;99.90
9975;DHT22;5028;50.974;4.968;2023-06-22T00:15:39;20.30;99.90
9975;DHT22;5028;50.974;4.968;2023-06-22T00:18:08;20.30;99.90
9975;DHT22;5028;50.974;4.968;2023-06-22T00:20:37;20.20;99.90
9975;DHT22;5028;50.974;4.968;2023-06-22T00:23:07;20.10;99.90
9975;DHT22;5028;50.974;4.968;2023-06-22T00:25:42;20.10;99.90
9975;DHT22;5028;50.974;4.968;2023-06-22T00:28:11;20.00;99.90
9975;DHT22;5028;50.974;4.968;2023-06-22T00:30:41;20.00;99.90
9975;DHT22;5028;50.974;4.968;2023-06-22T00:33:10;20.00;99.90
9975;DHT22;5028;50.974;4.968;2023-06-22T00:35:38;19.90;99.90
9975;DHT22;5028;50.974;4.968;2023-06-22T00:38:09;19.90;99.90
9975;DHT22;5028;50.974;4.968;2023-06-22T00:40:38;19.90;99.90
9975;DHT22;5028;50.974;4.968;2023-06-22T00:43:07;19.90;99.90
9975;DHT22;5028;50.974;4.968;2023-06-22T00:45:35;19.80;99.90
9975;DHT22;5028;50.974;4.968;2023-06-22T00:48:07;19.80;99.90
9975;DHT22;5028;50.974;4.968;2023-06-22T00:50:36;19.80;99.90
9975;DHT22;5028;50.974;4.968;2023-06-22T00:53:06;19.80;99.90
9975;DHT22;5028;50.974;4.968;2023-06-22T00:55:37;19.80;99.90
9975;DHT22;5028;50.974;4.968;2023-06-22T00:58:12;19.80;99.90
9975;DHT22;5028;50.974;4.968;2023-06-22T01:00:41;19.90;99.90
9975;DHT22;5028;50.974;4.968;2023-06-22T01:03:12;19.90;99.90
9975;DHT22;5028;50.974;4.968;2023-06-22T01:05:41;19.90;99.90
9975;DHT22;5028;50.974;4.968;2023-06-22T01:08:22;19.90;99.90
9975;DHT22;5028;50.974;4.968;2023-06-22T01:10:57;19.90;99.90
9975;DHT22;5028;50.974;4.968;2023-06-22T01:13:32;19.90;99.90
9975;DHT22;5028;50.974;4.968;2023-06-22T01:16:07;19.90;99.90
9975;DHT22;5028;50.974;4.968;2023-06-22T01:18:42;19.90;99.90
9975;DHT22;5028;50.974;4.968;2023-06-22T01:21:16;19.90;99.90
9975;DHT22;5028;50.974;4.968;2023-06-22T01:23:56;19.90;99.90
9975;DHT22;5028;50.974;4.968;2023-06-22T01:26:36;19.80;99.90
9975;DHT22;5028;50.974;4.968;2023-06-22T01:29:11;19.80;99.90
9975;DHT22;5028;50.974;4.968;2023-06-22T01:31:42;19.80;99.90
9975;DHT22;5028;50.974;4.968;2023-06-22T01:34:14;19.80;99.90
9975;DHT22;5028;50.974;4.968;2023-06-22T01:36:43;19.70;99.90
9975;DHT22;5028;50.974;4.968;2023-06-22T01:39:13;19.70;99.90
9975;DHT22;5028;50.974;4.968;2023-06-22T01:41:42;19.70;99.90
9975;DHT22;5028;50.974;4.968;2023-06-22T01:44:13;19.70;99.90
9975;DHT22;5028;50.974;4.968;2023-06-22T01:46:43;19.70;99.90
9975;DHT22;5028;50.974;4.968;2023-06-22T01:49:14;19.70;99.90
9975;DHT22;5028;50.974;4.968;2023-06-22T01:51:42;19.70;99.90
9975;DHT22;5028;50.974;4.968;2023-06-22T01:54:11;19.60;99.90
9975;DHT22;5028;50.974;4.968;2023-06-22T01:56:43;19.60;99.90
9975;DHT22;5028;50.974;4.968;2023-06-22T01:59:17;19.60;99.90
9975;DHT22;5028;50.974;4.968;2023-06-22T02:01:54;19.50;99.90
9975;DHT22;5028;50.974;4.968;2023-06-22T02:04:29;19.50;99.90
9975;DHT22;5028;50.974;4.968;2023-06-22T02:07:02;19.50;99.90
9975;DHT22;5028;50.974;4.968;2023-06-22T02:09:35;19.50;99.90
9975;DHT22;5028;50.974;4.968;2023-06-22T02:12:08;19.50;99.90
9975;DHT22;5028;50.974;4.968;2023-06-22T02:14:40;19.40;99.90
9975;DHT22;5028;50.974;4.968;2023-06-22T02:17:10;19.40;99.90
9975;DHT22;5028;50.974;4.968;2023-06-22T02:19:41;19.40;99.90
9975;DHT22;5028;50.974;4.968;2023-06-22T02:22:10;19.40;99.90
9975;DHT22;5028;50.974;4.968;2023-06-22T02:24:40;19.40;99.90
9975;DHT22;5028;50.974;4.968;2023-06-22T02:27:08;19.30;99.90
9975;DHT22;5028;50.974;4.968;2023-06-22T02:29:37;19.40;99.90
9975;DHT22;5028;50.974;4.968;2023-06-22T02:32:08;19.30;99.90
9975;DHT22;5028;50.974;4.968;2023-06-22T02:34:37;19.30;99.90
9975;DHT22;5028;50.974;4.968;2023-06-22T02:37:05;19.30;99.90
9975;DHT22;5028;50.974;4.968;2023-06-22T02:39:34;19.20;99.90
9975;DHT22;5028;50.974;4.968;2023-06-22T02:42:04;19.20;99.90
9975;DHT22;5028;50.974;4.968;2023-06-22T02:44:42;19.20;99.90
9975;DHT22;5028;50.974;4.968;2023-06-22T02:47:12;19.20;99.90
9975;DHT22;5028;50.974;4.968;2023-06-22T02:49:41;19.10;99.90
9975;DHT22;5028;50.974;4.968;2023-06-22T02:52:12;19.00;99.90
9975;DHT22;5028;50.974;4.968;2023-06-22T02:54:41;19.00;99.90
9975;DHT22;5028;50.974;4.968;2023-06-22T02:57:12;19.00;99.90
9975;DHT22;5028;50.974;4.968;2023-06-22T02:59:41;19.00;99.90
9975;DHT22;5028;50.974;4.968;2023-06-22T03:02:12;18.90;99.90
9975;DHT22;5028;50.974;4.968;2023-06-22T03:04:40;18.90;99.90
9975;DHT22;5028;50.974;4.968;2023-06-22T03:07:09;18.80;99.90
9975;DHT22;5028;50.974;4.968;2023-06-22T03:09:38;18.80;99.90
9975;DHT22;5028;50.974;4.968;2023-06-22T03:12:08;18.80;99.90
9975;DHT22;5028;50.974;4.968;2023-06-22T03:14:37;18.80;99.90
9975;DHT22;5028;50.974;4.968;2023-06-22T03:17:06;18.80;99.90
9975;DHT22;5028;50.974;4.968;2023-06-22T03:19:36;18.80;99.90
9975;DHT22;5028;50.974;4.968;2023-06-22T03:22:05;18.70;99.90
9975;DHT22;5028;50.974;4.968;2023-06-22T03:24:34;18.70;99.90
9975;DHT22;5028;50.974;4.968;2023-06-22T03:27:04;18.70;99.90
9975;DHT22;5028;50.974;4.968;2023-06-22T03:29:33;18.60;99.90
9975;DHT22;5028;50.974;4.968;2023-06-22T03:32:02;18.70;99.90
9975;DHT22;5028;50.974;4.968;2023-06-22T03:34:32;18.70;99.90
9975;DHT22;5028;50.974;4.968;2023-06-22T03:37:03;18.70;99.90
9975;DHT22;5028;50.974;4.968;2023-06-22T03:39:32;18.80;99.90
9975;DHT22;5028;50.974;4.968;2023-06-22T03:42:01;18.80;99.90
9975;DHT22;5028;50.974;4.968;2023-06-22T03:44:32;18.80;99.90
9975;DHT22;5028;50.974;4.968;2023-06-22T03:47:02;18.90;99.90
9975;DHT22;5028;50.974;4.968;2023-06-22T03:49:31;18.90;99.90
9975;DHT22;5028;50.974;4.968;2023-06-22T03:52:00;18.90;99.90
9975;DHT22;5028;50.974;4.968;2023-06-22T03:54:31;18.90;99.90
9975;DHT22;5028;50.974;4.968;2023-06-22T03:57:01;18.90;99.90
9975;DHT22;5028;50.974;4.968;2023-06-22T03:59:30;18.90;99.90
9975;DHT22;5028;50.974;4.968;2023-06-22T04:01:59;18.90;99.90
9975;DHT22;5028;50.974;4.968;2023-06-22T04:04:28;18.90;99.90
9975;DHT22;5028;50.974;4.968;2023-06-22T04:06:56;18.90;99.90
9975;DHT22;5028;50.974;4.968;2023-06-22T04:09:26;18.90;99.90
9975;DHT22;5028;50.974;4.968;2023-06-22T04:11:56;18.90;99.90
9975;DHT22;5028;50.974;4.968;2023-06-22T04:14:25;19.00;99.90
9975;DHT22;5028;50.974;4.968;2023-06-22T04:16:54;19.00;99.90
9975;DHT22;5028;50.974;4.968;2023-06-22T04:19:23;19.00;99.90
9975;DHT22;5028;50.974;4.968;2023-06-22T04:21:52;19.10;99.90
9975;DHT22;5028;50.974;4.968;2023-06-22T04:24:21;19.10;99.90
9975;DHT22;5028;50.974;4.968;2023-06-22T04:26:50;19.20;99.90
9975;DHT22;5028;50.974;4.968;2023-06-22T04:29:23;19.20;99.90
9975;DHT22;5028;50.974;4.968;2023-06-22T04:31:56;19.30;99.90
9975;DHT22;5028;50.974;4.968;2023-06-22T04:34:25;19.30;99.90
9975;DHT22;5028;50.974;4.968;2023-06-22T04:36:54;19.40;99.90
9975;DHT22;5028;50.974;4.968;2023-06-22T04:39:23;19.40;99.90
9975;DHT22;5028;50.974;4.968;2023-06-22T04:41:56;19.40;99.90
9975;DHT22;5028;50.974;4.968;2023-06-22T04:44:29;19.50;99.90
9975;DHT22;5028;50.974;4.968;2023-06-22T04:47:00;19.50;99.90
9975;DHT22;5028;50.974;4.968;2023-06-22T04:49:31;19.50;99.90
9975;DHT22;5028;50.974;4.968;2023-06-22T04:52:02;19.40;99.90
9975;DHT22;5028;50.974;4.968;2023-06-22T04:54:31;19.40;99.90
9975;DHT22;5028;50.974;4.968;2023-06-22T04:57:01;19.30;99.90
9975;DHT22;5028;50.974;4.968;2023-06-22T04:59:32;19.30;99.90
9975;DHT22;5028;50.974;4.968;2023-06-22T05:02:01;19.30;99.90
9975;DHT22;5028;50.974;4.968;2023-06-22T05:04:30;19.20;99.90
9975;DHT22;5028;50.974;4.968;2023-06-22T05:07:01;19.30;99.90
9975;DHT22;5028;50.974;4.968;2023-06-22T05:09:29;19.30;99.90
9975;DHT22;5028;50.974;4.968;2023-06-22T05:11:58;19.30;99.90
9975;DHT22;5028;50.974;4.968;2023-06-22T05:14:29;19.30;99.90
9975;DHT22;5028;50.974;4.968;2023-06-22T05:17:01;19.20;99.90
9975;DHT22;5028;50.974;4.968;2023-06-22T05:19:31;19.30;99.90
9975;DHT22;5028;50.974;4.968;2023-06-22T05:22:01;19.30;99.90
9975;DHT22;5028;50.974;4.968;2023-06-22T05:24:30;19.30;99.90
9975;DHT22;5028;50.974;4.968;2023-06-22T05:26:59;19.40;99.90
9975;DHT22;5028;50.974;4.968;2023-06-22T05:29:28;19.50;99.90
9975;DHT22;5028;50.974;4.968;2023-06-22T05:31:56;19.50;99.90
9975;DHT22;5028;50.974;4.968;2023-06-22T05:34:27;19.50;99.90
9975;DHT22;5028;50.974;4.968;2023-06-22T05:36:55;19.60;99.90
9975;DHT22;5028;50.974;4.968;2023-06-22T05:39:26;19.60;99.90
9975;DHT22;5028;50.974;4.968;2023-06-22T05:41:55;19.60;99.90
9975;DHT22;5028;50.974;4.968;2023-06-22T05:44:24;19.60;99.90
9975;DHT22;5028;50.974;4.968;2023-06-22T05:46:53;19.60;99.90
9975;DHT22;5028;50.974;4.968;2023-06-22T05:49:22;19.60;99.90
9975;DHT22;5028;50.974;4.968;2023-06-22T05:51:53;19.60;99.90
9975;DHT22;5028;50.974;4.968;2023-06-22T05:54:21;19.60;99.90
9975;DHT22;5028;50.974;4.968;2023-06-22T05:56:50;19.60;99.90
9975;DHT22;5028;50.974;4.968;2023-06-22T05:59:19;19.60;99.90
9975;DHT22;5028;50.974;4.968;2023-06-22T06:01:48;19.50;99.90
9975;DHT22;5028;50.974;4.968;2023-06-22T06:04:17;19.40;99.90
9975;DHT22;5028;50.974;4.968;2023-06-22T06:06:46;19.30;99.90
9975;DHT22;5028;50.974;4.968;2023-06-22T06:09:16;19.30;99.90
9975;DHT22;5028;50.974;4.968;2023-06-22T06:11:45;19.30;99.90
9975;DHT22;5028;50.974;4.968;2023-06-22T06:14:14;19.30;99.90
9975;DHT22;5028;50.974;4.968;2023-06-22T06:16:44;19.40;99.90
9975;DHT22;5028;50.974;4.968;2023-06-22T06:19:13;19.50;99.90
9975;DHT22;5028;50.974;4.968;2023-06-22T06:21:41;19.50;99.90
9975;DHT22;5028;50.974;4.968;2023-06-22T06:24:11;19.60;99.90
9975;DHT22;5028;50.974;4.968;2023-06-22T06:26:41;19.50;99.90
9975;DHT22;5028;50.974;4.968;2023-06-22T06:29:10;19.60;99.90
9975;DHT22;5028;50.974;4.968;2023-06-22T06:31:39;19.50;99.90
9975;DHT22;5028;50.974;4.968;2023-06-22T06:34:07;19.60;99.90
9975;DHT22;5028;50.974;4.968;2023-06-22T06:36:36;19.60;99.90
9975;DHT22;5028;50.974;4.968;2023-06-22T06:39:05;19.70;99.90
9975;DHT22;5028;50.974;4.968;2023-06-22T06:41:33;19.70;99.90
9975;DHT22;5028;50.974;4.968;2023-06-22T06:44:04;19.80;99.90
9975;DHT22;5028;50.974;4.968;2023-06-22T06:46:32;19.70;99.90
9975;DHT22;5028;50.974;4.968;2023-06-22T06:49:02;19.80;99.90
9975;DHT22;5028;50.974;4.968;2023-06-22T06:51:31;19.80;99.90
9975;DHT22;5028;50.974;4.968;2023-06-22T06:54:00;19.80;99.90
9975;DHT22;5028;50.974;4.968;2023-06-22T06:56:30;19.80;99.90
9975;DHT22;5028;50.974;4.968;2023-06-22T06:59:00;19.80;99.90
9975;DHT22;5028;50.974;4.968;2023-06-22T07:01:30;19.80;99.90
9975;DHT22;5028;50.974;4.968;2023-06-22T07:04:00;19.80;99.90
9975;DHT22;5028;50.974;4.968;2023-06-22T07:06:29;19.90;99.90
9975;DHT22;5028;50.974;4.968;2023-06-22T07:09:00;20.00;99.90
9975;DHT22;5028;50.974;4.968;2023-06-22T07:11:30;20.00;99.90
9975;DHT22;5028;50.974;4.968;2023-06-22T07:13:58;20.00;99.90
9975;DHT22;5028;50.974;4.968;2023-06-22T07:16:30;20.10;99.90
9975;DHT22;5028;50.974;4.968;2023-06-22T07:19:00;20.10;99.90
9975;DHT22;5028;50.974;4.968;2023-06-22T07:21:29;20.10;99.90
9975;DHT22;5028;50.974;4.968;2023-06-22T07:23:58;20.10;99.90
9975;DHT22;5028;50.974;4.968;2023-06-22T07:26:27;20.10;99.90
9975;DHT22;5028;50.974;4.968;2023-06-22T07:28:55;20.20;99.90
9975;DHT22;5028;50.974;4.968;2023-06-22T07:31:24;20.30;99.90
9975;DHT22;5028;50.974;4.968;2023-06-22T07:33:54;20.30;99.90
9975;DHT22;5028;50.974;4.968;2023-06-22T07:36:23;20.20;99.90
9975;DHT22;5028;50.974;4.968;2023-06-22T07:38:52;20.20;99.90
9975;DHT22;5028;50.974;4.968;2023-06-22T07:41:21;20.20;99.90
9975;DHT22;5028;50.974;4.968;2023-06-22T07:43:51;20.20;99.90
9975;DHT22;5028;50.974;4.968;2023-06-22T07:46:19;20.20;99.90
9975;DHT22;5028;50.974;4.968;2023-06-22T07:48:48;20.30;99.90
9975;DHT22;5028;50.974;4.968;2023-06-22T07:51:21;20.30;99.90
9975;DHT22;5028;50.974;4.968;2023-06-22T07:53:50;20.30;99.90
9975;DHT22;5028;50.974;4.968;2023-06-22T07:56:21;20.40;99.90
9975;DHT22;5028;50.974;4.968;2023-06-22T07:58:50;20.40;99.90
9975;DHT22;5028;50.974;4.968;2023-06-22T08:01:20;20.40;99.90
9975;DHT22;5028;50.974;4.968;2023-06-22T08:03:49;20.40;99.90
9975;DHT22;5028;50.974;4.968;2023-06-22T08:06:18;20.40;99.90
9975;DHT22;5028;50.974;4.968;2023-06-22T08:08:49;20.40;99.90
9975;DHT22;5028;50.974;4.968;2023-06-22T08:11:20;20.40;99.90
9975;DHT22;5028;50.974;4.968;2023-06-22T08:13:52;20.40;99.90
9975;DHT22;5028;50.974;4.968;2023-06-22T08:16:22;20.40;99.90
9975;DHT22;5028;50.974;4.968;2023-06-22T08:18:51;20.40;99.90
9975;DHT22;5028;50.974;4.968;2023-06-22T08:21:20;20.40;99.90
9975;DHT22;5028;50.974;4.968;2023-06-22T08:23:50;20.40;99.90
9975;DHT22;5028;50.974;4.968;2023-06-22T08:26:23;20.40;99.90
9975;DHT22;5028;50.974;4.968;2023-06-22T08:28:52;20.50;99.90
9975;DHT22;5028;50.974;4.968;2023-06-22T08:31:21;20.50;99.90
9975;DHT22;5028;50.974;4.968;2023-06-22T08:33:50;20.60;99.90
9975;DHT22;5028;50.974;4.968;2023-06-22T08:36:19;20.60;99.90
9975;DHT22;5028;50.974;4.968;2023-06-22T08:38:50;20.70;99.90
9975;DHT22;5028;50.974;4.968;2023-06-22T08:41:19;20.80;99.90
9975;DHT22;5028;50.974;4.968;2023-06-22T08:43:48;20.80;99.90
9975;DHT22;5028;50.974;4.968;2023-06-22T08:46:16;20.80;99.90
9975;DHT22;5028;50.974;4.968;2023-06-22T08:48:49;20.80;99.90
9975;DHT22;5028;50.974;4.968;2023-06-22T08:51:18;20.80;99.90
9975;DHT22;5028;50.974;4.968;2023-06-22T08:53:46;20.70;99.90
9975;DHT22;5028;50.974;4.968;2023-06-22T08:56:17;20.70;99.90
9975;DHT22;5028;50.974;4.968;2023-06-22T08:58:46;20.80;99.90
9975;DHT22;5028;50.974;4.968;2023-06-22T09:01:15;20.80;99.90
9975;DHT22;5028;50.974;4.968;2023-06-22T09:03:44;20.90;99.90
9975;DHT22;5028;50.974;4.968;2023-06-22T09:06:21;20.90;99.90
9975;DHT22;5028;50.974;4.968;2023-06-22T09:08:50;20.80;99.90
9975;DHT22;5028;50.974;4.968;2023-06-22T09:11:20;20.80;99.90
9975;DHT22;5028;50.974;4.968;2023-06-22T09:13:48;20.80;99.90
9975;DHT22;5028;50.974;4.968;2023-06-22T09:16:18;20.80;99.90
9975;DHT22;5028;50.974;4.968;2023-06-22T09:18:48;20.80;99.90
9975;DHT22;5028;50.974;4.968;2023-06-22T09:21:17;20.80;99.90
9975;DHT22;5028;50.974;4.968;2023-06-22T09:23:45;20.80;99.90
9975;DHT22;5028;50.974;4.968;2023-06-22T09:26:19;20.70;99.90
9975;DHT22;5028;50.974;4.968;2023-06-22T09:28:49;20.50;99.90
9975;DHT22;5028;50.974;4.968;2023-06-22T09:31:18;20.30;99.90
9975;DHT22;5028;50.974;4.968;2023-06-22T09:33:53;20.20;99.90
9975;DHT22;5028;50.974;4.968;2023-06-22T09:36:22;20.10;99.90
9975;DHT22;5028;50.974;4.968;2023-06-22T09:38:51;20.00;99.90
9975;DHT22;5028;50.974;4.968;2023-06-22T09:41:27;20.00;99.90
9975;DHT22;5028;50.974;4.968;2023-06-22T09:43:56;20.10;99.90
9975;DHT22;5028;50.974;4.968;2023-06-22T09:46:24;20.10;99.90
9975;DHT22;5028;50.974;4.968;2023-06-22T09:48:54;20.10;99.90
9975;DHT22;5028;50.974;4.968;2023-06-22T09:51:22;20.00;99.90
9975;DHT22;5028;50.974;4.968;2023-06-22T09:53:51;19.80;99.90
9975;DHT22;5028;50.974;4.968;2023-06-22T09:56:20;19.70;99.90
9975;DHT22;5028;50.974;4.968;2023-06-22T09:58:51;19.50;99.90
9975;DHT22;5028;50.974;4.968;2023-06-22T10:01:21;19.40;99.90
9975;DHT22;5028;50.974;4.968;2023-06-22T10:03:52;19.40;99.90
9975;DHT22;5028;50.974;4.968;2023-06-22T10:06:26;19.20;99.90
9975;DHT22;5028;50.974;4.968;2023-06-22T10:08:55;19.20;99.90
9975;DHT22;5028;50.974;4.968;2023-06-22T10:11:24;19.00;99.90
9975;DHT22;5028;50.974;4.968;2023-06-22T10:13:58;18.80;99.90
9975;DHT22;5028;50.974;4.968;2023-06-22T10:16:30;18.60;99.90
9975;DHT22;5028;50.974;4.968;2023-06-22T10:18:59;18.70;99.90
9975;DHT22;5028;50.974;4.968;2023-06-22T10:21:28;18.60;99.90
9975;DHT22;5028;50.974;4.968;2023-06-22T10:23:57;18.60;99.90
9975;DHT22;5028;50.974;4.968;2023-06-22T10:26:26;18.60;99.90
9975;DHT22;5028;50.974;4.968;2023-06-22T10:28:57;18.60;99.90
9975;DHT22;5028;50.974;4.968;2023-06-22T10:31:42;18.70;99.90
9975;DHT22;5028;50.974;4.968;2023-06-22T10:34:11;18.60;99.90
9975;DHT22;5028;50.974;4.968;2023-06-22T10:36:40;18.60;99.90
9975;DHT22;5028;50.974;4.968;2023-06-22T10:39:09;18.80;99.90
9975;DHT22;5028;50.974;4.968;2023-06-22T10:41:38;18.70;99.90
9975;DHT22;5028;50.974;4.968;2023-06-22T10:44:08;18.70;99.90
9975;DHT22;5028;50.974;4.968;2023-06-22T10:46:37;18.80;99.90
9975;DHT22;5028;50.974;4.968;2023-06-22T10:49:06;18.80;99.90
9975;DHT22;5028;50.974;4.968;2023-06-22T10:51:37;18.90;99.90
9975;DHT22;5028;50.974;4.968;2023-06-22T10:54:05;18.70;99.90
9975;DHT22;5028;50.974;4.968;2023-06-22T10:56:34;18.80;99.90
9975;DHT22;5028;50.974;4.968;2023-06-22T10:59:02;18.90;99.90
9975;DHT22;5028;50.974;4.968;2023-06-22T11:01:32;19.00;99.90
9975;DHT22;5028;50.974;4.968;2023-06-22T11:04:03;18.90;99.90
9975;DHT22;5028;50.974;4.968;2023-06-22T11:06:32;18.80;99.90
9975;DHT22;5028;50.974;4.968;2023-06-22T11:09:01;18.70;99.90
9975;DHT22;5028;50.974;4.968;2023-06-22T11:11:50;18.60;99.90
9975;DHT22;5028;50.974;4.968;2023-06-22T11:14:20;18.60;99.90
9975;DHT22;5028;50.974;4.968;2023-06-22T11:16:50;18.50;99.90
9975;DHT22;5028;50.974;4.968;2023-06-22T11:19:19;18.20;99.90
9975;DHT22;5028;50.974;4.968;2023-06-22T11:21:47;18.20;99.90
9975;DHT22;5028;50.974;4.968;2023-06-22T11:24:16;18.10;99.90
9975;DHT22;5028;50.974;4.968;2023-06-22T11:26:45;18.10;99.90
9975;DHT22;5028;50.974;4.968;2023-06-22T11:29:13;18.10;99.90
9975;DHT22;5028;50.974;4.968;2023-06-22T11:32:05;18.00;99.90
9975;DHT22;5028;50.974;4.968;2023-06-22T11:34:38;18.00;99.90
9975;DHT22;5028;50.974;4.968;2023-06-22T11:37:07;18.00;99.90
9975;DHT22;5028;50.974;4.968;2023-06-22T11:39:35;18.00;99.90
9975;DHT22;5028;50.974;4.968;2023-06-22T11:42:08;18.00;99.90
9975;DHT22;5028;50.974;4.968;2023-06-22T11:44:37;18.10;99.90
9975;DHT22;5028;50.974;4.968;2023-06-22T11:47:07;18.20;99.90
9975;DHT22;5028;50.974;4.968;2023-06-22T11:49:36;18.20;99.90
9975;DHT22;5028;50.974;4.968;2023-06-22T11:52:05;18.10;99.90
9975;DHT22;5028;50.974;4.968;2023-06-22T11:54:34;17.90;99.90
9975;DHT22;5028;50.974;4.968;2023-06-22T11:57:04;18.10;99.90
9975;DHT22;5028;50.974;4.968;2023-06-22T11:59:33;18.00;99.90
9975;DHT22;5028;50.974;4.968;2023-06-22T12:02:02;17.90;99.90
9975;DHT22;5028;50.974;4.968;2023-06-22T12:04:34;17.90;99.90
9975;DHT22;5028;50.974;4.968;2023-06-22T12:07:02;17.80;99.90
9975;DHT22;5028;50.974;4.968;2023-06-22T12:09:31;17.80;99.90
9975;DHT22;5028;50.974;4.968;2023-06-22T12:12:00;17.90;99.90
9975;DHT22;5028;50.974;4.968;2023-06-22T12:14:32;17.90;99.90
9975;DHT22;5028;50.974;4.968;2023-06-22T12:17:01;17.80;99.90
9975;DHT22;5028;50.974;4.968;2023-06-22T12:19:29;17.90;99.90
9975;DHT22;5028;50.974;4.968;2023-06-22T12:22:00;18.00;99.90
9975;DHT22;5028;50.974;4.968;2023-06-22T12:24:29;17.90;99.90
9975;DHT22;5028;50.974;4.968;2023-06-22T12:26:57;17.80;99.90
9975;DHT22;5028;50.974;4.968;2023-06-22T12:29:26;17.80;99.90
9975;DHT22;5028;50.974;4.968;2023-06-22T12:31:55;17.70;99.90
9975;DHT22;5028;50.974;4.968;2023-06-22T12:34:23;17.80;99.90
9975;DHT22;5028;50.974;4.968;2023-06-22T12:36:52;17.80;99.90
9975;DHT22;5028;50.974;4.968;2023-06-22T12:39:22;17.70;99.90
9975;DHT22;5028;50.974;4.968;2023-06-22T12:41:51;17.70;99.90
9975;DHT22;5028;50.974;4.968;2023-06-22T12:44:20;17.70;99.90
9975;DHT22;5028;50.974;4.968;2023-06-22T12:46:48;17.70;99.90
9975;DHT22;5028;50.974;4.968;2023-06-22T12:49:32;17.70;99.90
9975;DHT22;5028;50.974;4.968;2023-06-22T12:52:00;17.70;99.90
9975;DHT22;5028;50.974;4.968;2023-06-22T12:54:30;17.70;99.90
9975;DHT22;5028;50.974;4.968;2023-06-22T12:57:12;17.70;99.90
9975;DHT22;5028;50.974;4.968;2023-06-22T12:59:41;17.70;99.90
9975;DHT22;5028;50.974;4.968;2023-06-22T13:02:09;17.70;99.90
9975;DHT22;5028;50.974;4.968;2023-06-22T13:04:38;17.70;99.90
9975;DHT22;5028;50.974;4.968;2023-06-22T13:07:06;17.80;99.90
9975;DHT22;5028;50.974;4.968;2023-06-22T13:09:50;17.80;99.90
9975;DHT22;5028;50.974;4.968;2023-06-22T13:12:20;17.70;99.90
9975;DHT22;5028;50.974;4.968;2023-06-22T13:14:49;17.80;99.90
9975;DHT22;5028;50.974;4.968;2023-06-22T13:17:17;17.90;99.90
9975;DHT22;5028;50.974;4.968;2023-06-22T13:19:46;17.80;99.90
9975;DHT22;5028;50.974;4.968;2023-06-22T13:22:28;17.80;99.90
9975;DHT22;5028;50.974;4.968;2023-06-22T13:24:59;17.90;99.90
9975;DHT22;5028;50.974;4.968;2023-06-22T13:27:29;17.80;99.90
9975;DHT22;5028;50.974;4.968;2023-06-22T13:29:57;17.90;99.90
9975;DHT22;5028;50.974;4.968;2023-06-22T13:32:26;17.90;99.90
9975;DHT22;5028;50.974;4.968;2023-06-22T13:34:55;17.90;99.90
9975;DHT22;5028;50.974;4.968;2023-06-22T13:37:23;17.90;99.90
9975;DHT22;5028;50.974;4.968;2023-06-22T13:39:52;17.90;99.90
9975;DHT22;5028;50.974;4.968;2023-06-22T13:42:24;17.90;99.90
9975;DHT22;5028;50.974;4.968;2023-06-22T13:44:52;17.80;99.90
9975;DHT22;5028;50.974;4.968;2023-06-22T13:47:20;17.80;99.90
9975;DHT22;5028;50.974;4.968;2023-06-22T13:49:49;17.80;99.90
9975;DHT22;5028;50.974;4.968;2023-06-22T13:52:18;17.70;99.90
9975;DHT22;5028;50.974;4.968;2023-06-22T13:54:47;17.70;99.90
9975;DHT22;5028;50.974;4.968;2023-06-22T13:57:15;17.70;99.90
9975;DHT22;5028;50.974;4.968;2023-06-22T13:59:45;17.70;99.90
9975;DHT22;5028;50.974;4.968;2023-06-22T14:02:14;17.60;99.90
9975;DHT22;5028;50.974;4.968;2023-06-22T14:04:42;17.60;99.90
9975;DHT22;5028;50.974;4.968;2023-06-22T14:07:14;17.60;99.90
9975;DHT22;5028;50.974;4.968;2023-06-22T14:09:42;17.60;99.90
9975;DHT22;5028;50.974;4.968;2023-06-22T14:12:12;17.70;99.90
9975;DHT22;5028;50.974;4.968;2023-06-22T14:14:40;17.70;99.90
9975;DHT22;5028;50.974;4.968;2023-06-22T14:17:10;17.70;99.90
9975;DHT22;5028;50.974;4.968;2023-06-22T14:19:51;17.60;99.90
9975;DHT22;5028;50.974;4.968;2023-06-22T14:22:20;17.60;99.90
9975;DHT22;5028;50.974;4.968;2023-06-22T14:24:49;17.60;99.90
9975;DHT22;5028;50.974;4.968;2023-06-22T14:27:18;17.60;99.90
9975;DHT22;5028;50.974;4.968;2023-06-22T14:29:46;17.70;99.90
9975;DHT22;5028;50.974;4.968;2023-06-22T14:32:16;17.70;99.90
9975;DHT22;5028;50.974;4.968;2023-06-22T14:34:45;17.60;99.90
9975;DHT22;5028;50.974;4.968;2023-06-22T14:37:13;17.60;99.90
9975;DHT22;5028;50.974;4.968;2023-06-22T14:39:42;17.60;99.90
9975;DHT22;5028;50.974;4.968;2023-06-22T14:42:11;17.60;99.90
9975;DHT22;5028;50.974;4.968;2023-06-22T14:44:39;17.60;99.90
9975;DHT22;5028;50.974;4.968;2023-06-22T14:47:08;17.60;99.90
9975;DHT22;5028;50.974;4.968;2023-06-22T14:49:38;17.60;99.90
9975;DHT22;5028;50.974;4.968;2023-06-22T14:52:08;17.60;99.90
9975;DHT22;5028;50.974;4.968;2023-06-22T14:54:36;17.60;99.90
9975;DHT22;5028;50.974;4.968;2023-06-22T14:57:05;17.50;99.90
9975;DHT22;5028;50.974;4.968;2023-06-22T14:59:34;17.50;99.90
9975;DHT22;5028;50.974;4.968;2023-06-22T15:02:02;17.60;99.90
9975;DHT22;5028;50.974;4.968;2023-06-22T15:04:31;17.50;99.90
9975;DHT22;5028;50.974;4.968;2023-06-22T15:07:03;17.40;99.90
9975;DHT22;5028;50.974;4.968;2023-06-22T15:09:32;17.40;99.90
9975;DHT22;5028;50.974;4.968;2023-06-22T15:12:01;17.40;99.90
9975;DHT22;5028;50.974;4.968;2023-06-22T15:14:32;17.30;99.90
9975;DHT22;5028;50.974;4.968;2023-06-22T15:17:01;17.30;99.90
9975;DHT22;5028;50.974;4.968;2023-06-22T15:19:29;17.40;99.90
9975;DHT22;5028;50.974;4.968;2023-06-22T15:21:58;17.30;99.90
9975;DHT22;5028;50.974;4.968;2023-06-22T15:24:28;17.20;99.90
9975;DHT22;5028;50.974;4.968;2023-06-22T15:26:57;17.20;99.90
9975;DHT22;5028;50.974;4.968;2023-06-22T15:29:26;17.10;99.90
9975;DHT22;5028;50.974;4.968;2023-06-22T15:31:54;17.20;99.90
9975;DHT22;5028;50.974;4.968;2023-06-22T15:34:23;17.10;99.90
9975;DHT22;5028;50.974;4.968;2023-06-22T15:36:52;17.20;99.90
9975;DHT22;5028;50.974;4.968;2023-06-22T15:39:20;17.20;99.90
9975;DHT22;5028;50.974;4.968;2023-06-22T15:41:51;17.10;99.90
9975;DHT22;5028;50.974;4.968;2023-06-22T15:44:22;17.10;99.90
9975;DHT22;5028;50.974;4.968;2023-06-22T15:46:51;17.10;99.90
9975;DHT22;5028;50.974;4.968;2023-06-22T15:49:20;17.10;99.90
9975;DHT22;5028;50.974;4.968;2023-06-22T15:51:48;17.20;99.90
9975;DHT22;5028;50.974;4.968;2023-06-22T15:54:17;17.10;99.90
9975;DHT22;5028;50.974;4.968;2023-06-22T15:56:45;17.20;99.90
9975;DHT22;5028;50.974;4.968;2023-06-22T15:59:17;17.20;99.90
9975;DHT22;5028;50.974;4.968;2023-06-22T16:01:45;17.10;99.90
9975;DHT22;5028;50.974;4.968;2023-06-22T16:04:14;17.10;99.90
9975;DHT22;5028;50.974;4.968;2023-06-22T16:06:43;17.20;99.90
9975;DHT22;5028;50.974;4.968;2023-06-22T16:09:11;17.20;99.90
9975;DHT22;5028;50.974;4.968;2023-06-22T16:11:41;17.20;99.90
9975;DHT22;5028;50.974;4.968;2023-06-22T16:14:09;17.30;99.90
9975;DHT22;5028;50.974;4.968;2023-06-22T16:16:40;17.30;99.90
9975;DHT22;5028;50.974;4.968;2023-06-22T16:19:08;17.40;99.90